sensor_id;sensor_type;location;lat;lon;timestamp;pressure;altitude;pressure_sealevel;temperature;humidity
13952;BME280;39535;52.192;9.886;2024-02-26T00:00:14;99461.41;;;5.02;76.85
13952;BME280;39535;52.192;9.886;2024-02-26T00:02:41;99476.03;;;5.06;76.73
13952;BME280;39535;52.192;9.886;2024-02-26T00:05:08;99472.56;;;5.05;76.35
13952;BME280;39535;52.192;9.886;2024-02-26T00:07:34;99477.72;;;5.07;76.16
13952;BME280;39535;52.192;9.886;2024-02-26T00:10:00;99485.44;;;5.11;76.05
13952;BME280;39535;52.192;9.886;2024-02-26T00:12:27;99497.66;;;5.00;76.34
13952;BME280;39535;52.192;9.886;2024-02-26T00:14:53;99491.72;;;4.90;77.52
13952;BME280;39535;52.192;9.886;2024-02-26T00:17:21;99476.13;;;4.98;76.81
13952;BME280;39535;52.192;9.886;2024-02-26T00:19:47;99475.38;;;4.85;77.85
13952;BME280;39535;52.192;9.886;2024-02-26T00:22:13;99455.59;;;4.81;78.19
13952;BME280;39535;52.192;9.886;2024-02-26T00:24:40;99450.44;;;4.83;77.25
13952;BME280;39535;52.192;9.886;2024-02-26T00:27:07;99453.16;;;4.69;78.50
13952;BME280;39535;52.192;9.886;2024-02-26T00:29:33;99423.91;;;4.65;79.16
13952;BME280;39535;52.192;9.886;2024-02-26T00:31:59;99415.31;;;4.62;79.28
13952;BME280;39535;52.192;9.886;2024-02-26T00:34:27;99393.78;;;4.64;79.14
13952;BME280;39535;52.192;9.886;2024-02-26T00:36:53;99410.97;;;4.67;78.69
13952;BME280;39535;52.192;9.886;2024-02-26T00:39:20;99422.13;;;4.70;77.89
13952;BME280;39535;52.192;9.886;2024-02-26T00:41:46;99421.31;;;4.65;78.04
13952;BME280;39535;52.192;9.886;2024-02-26T00:44:12;99424.75;;;4.66;78.63
13952;BME280;39535;52.192;9.886;2024-02-26T00:46:39;99415.38;;;4.60;78.75
13952;BME280;39535;52.192;9.886;2024-02-26T00:49:05;99418.81;;;4.57;78.07
13952;BME280;39535;52.192;9.886;2024-02-26T00:51:33;99403.41;;;4.50;79.82
13952;BME280;39535;52.192;9.886;2024-02-26T00:53:59;99389.63;;;4.51;78.89
13952;BME280;39535;52.192;9.886;2024-02-26T00:56:25;99403.31;;;4.57;78.05
13952;BME280;39535;52.192;9.886;2024-02-26T00:58:52;99407.69;;;4.54;78.51
13952;BME280;39535;52.192;9.886;2024-02-26T01:01:18;99397.59;;;4.29;80.28
13952;BME280;39535;52.192;9.886;2024-02-26T01:03:45;99378.50;;;4.44;79.75
13952;BME280;39535;52.192;9.886;2024-02-26T01:06:11;99375.03;;;4.45;79.44
13952;BME280;39535;52.192;9.886;2024-02-26T01:08:39;99368.25;;;4.38;80.00
13952;BME280;39535;52.192;9.886;2024-02-26T01:11:05;99363.88;;;4.43;79.75
13952;BME280;39535;52.192;9.886;2024-02-26T01:13:32;99363.19;;;4.26;80.97
13952;BME280;39535;52.192;9.886;2024-02-26T01:15:59;99344.31;;;4.21;81.78
13952;BME280;39535;52.192;9.886;2024-02-26T01:18:25;99332.22;;;4.24;81.69
13952;BME280;39535;52.192;9.886;2024-02-26T01:20:52;99317.50;;;4.31;81.57
13952;BME280;39535;52.192;9.886;2024-02-26T01:23:19;99327.81;;;4.32;81.25
13952;BME280;39535;52.192;9.886;2024-02-26T01:25:48;99318.41;;;4.27;81.85
13952;BME280;39535;52.192;9.886;2024-02-26T01:28:14;99323.50;;;4.34;80.79
13952;BME280;39535;52.192;9.886;2024-02-26T01:30:41;99331.22;;;4.36;80.22
13952;BME280;39535;52.192;9.886;2024-02-26T01:33:07;99339.78;;;4.40;80.12
13952;BME280;39535;52.192;9.886;2024-02-26T01:35:33;99351.16;;;4.26;80.41
13952;BME280;39535;52.192;9.886;2024-02-26T01:38:00;99335.75;;;4.15;81.62
13952;BME280;39535;52.192;9.886;2024-02-26T01:40:26;99325.34;;;4.22;80.93
13952;BME280;39535;52.192;9.886;2024-02-26T01:42:54;99322.84;;;4.14;81.11
13952;BME280;39535;52.192;9.886;2024-02-26T01:45:21;99315.84;;;4.25;80.59
13952;BME280;39535;52.192;9.886;2024-02-26T01:47:50;99327.00;;;4.30;80.46
13952;BME280;39535;52.192;9.886;2024-02-26T01:50:17;99323.66;;;4.21;81.37
13952;BME280;39535;52.192;9.886;2024-02-26T01:52:43;99322.81;;;4.18;81.27
13952;BME280;39535;52.192;9.886;2024-02-26T01:55:10;99314.03;;;4.32;80.68
13952;BME280;39535;52.192;9.886;2024-02-26T01:57:37;99325.16;;;4.38;79.99
13952;BME280;39535;52.192;9.886;2024-02-26T02:00:06;99328.50;;;4.47;80.00
13952;BME280;39535;52.192;9.886;2024-02-26T02:02:33;99337.25;;;4.35;80.49
13952;BME280;39535;52.192;9.886;2024-02-26T02:05:00;99335.50;;;4.37;81.08
13952;BME280;39535;52.192;9.886;2024-02-26T02:07:27;99340.75;;;4.31;80.96
13952;BME280;39535;52.192;9.886;2024-02-26T02:09:54;99331.25;;;4.34;81.06
13952;BME280;39535;52.192;9.886;2024-02-26T02:12:21;99332.13;;;4.32;80.93
13952;BME280;39535;52.192;9.886;2024-02-26T02:14:47;99331.34;;;4.24;81.63
13952;BME280;39535;52.192;9.886;2024-02-26T02:17:15;99321.09;;;4.19;81.97
13952;BME280;39535;52.192;9.886;2024-02-26T02:19:41;99304.84;;;4.09;83.14
13952;BME280;39535;52.192;9.886;2024-02-26T02:22:09;99285.94;;;4.06;83.75
13952;BME280;39535;52.192;9.886;2024-02-26T02:24:36;99279.00;;;4.12;83.43
13952;BME280;39535;52.192;9.886;2024-02-26T02:27:03;99275.59;;;4.06;83.18
13952;BME280;39535;52.192;9.886;2024-02-26T02:29:29;99259.25;;;4.05;83.39
13952;BME280;39535;52.192;9.886;2024-02-26T02:31:56;99255.84;;;4.05;83.74
13952;BME280;39535;52.192;9.886;2024-02-26T02:34:23;99250.69;;;4.00;83.51
13952;BME280;39535;52.192;9.886;2024-02-26T02:36:51;99237.78;;;4.00;84.18
13952;BME280;39535;52.192;9.886;2024-02-26T02:39:20;99242.09;;;4.00;83.41
13952;BME280;39535;52.192;9.886;2024-02-26T02:41:46;99250.00;;;3.89;83.66
13952;BME280;39535;52.192;9.886;2024-02-26T02:44:13;99243.09;;;3.86;84.15
13952;BME280;39535;52.192;9.886;2024-02-26T02:46:39;99220.75;;;3.85;84.63
13952;BME280;39535;52.192;9.886;2024-02-26T02:49:08;99229.28;;;3.93;84.24
13952;BME280;39535;52.192;9.886;2024-02-26T02:51:35;99234.44;;;3.92;84.15
13952;BME280;39535;52.192;9.886;2024-02-26T02:54:01;99234.41;;;3.96;84.39
13952;BME280;39535;52.192;9.886;2024-02-26T02:56:29;99234.25;;;4.09;84.11
13952;BME280;39535;52.192;9.886;2024-02-26T02:58:55;99243.78;;;4.05;83.41
13952;BME280;39535;52.192;9.886;2024-02-26T03:01:22;99249.84;;;4.03;83.68
13952;BME280;39535;52.192;9.886;2024-02-26T03:03:48;99243.91;;;3.94;84.23
13952;BME280;39535;52.192;9.886;2024-02-26T03:06:16;99240.28;;;4.06;83.99
13952;BME280;39535;52.192;9.886;2024-02-26T03:08:42;99235.13;;;4.08;84.05
13952;BME280;39535;52.192;9.886;2024-02-26T03:11:13;99239.28;;;4.18;83.50
13952;BME280;39535;52.192;9.886;2024-02-26T03:13:40;99254.75;;;4.23;83.01
13952;BME280;39535;52.192;9.886;2024-02-26T03:16:07;99268.38;;;4.34;81.90
13952;BME280;39535;52.192;9.886;2024-02-26T03:18:33;99293.28;;;4.40;81.52
13952;BME280;39535;52.192;9.886;2024-02-26T03:21:00;99307.88;;;4.44;81.40
13952;BME280;39535;52.192;9.886;2024-02-26T03:23:27;99310.50;;;4.41;82.13
13952;BME280;39535;52.192;9.886;2024-02-26T03:25:54;99313.03;;;4.44;81.21
13952;BME280;39535;52.192;9.886;2024-02-26T03:28:21;99316.44;;;4.46;81.12
13952;BME280;39535;52.192;9.886;2024-02-26T03:30:48;99318.19;;;4.47;81.63
13952;BME280;39535;52.192;9.886;2024-02-26T03:33:15;99322.44;;;4.48;81.28
13952;BME280;39535;52.192;9.886;2024-02-26T03:35:41;99341.38;;;4.50;81.16
13952;BME280;39535;52.192;9.886;2024-02-26T03:38:07;99342.19;;;4.55;80.67
13952;BME280;39535;52.192;9.886;2024-02-26T03:40:34;99353.34;;;4.58;80.97
13952;BME280;39535;52.192;9.886;2024-02-26T03:43:00;99355.94;;;4.60;80.04
13952;BME280;39535;52.192;9.886;2024-02-26T03:45:27;99367.97;;;4.61;79.63
13952;BME280;39535;52.192;9.886;2024-02-26T03:47:55;99367.13;;;4.57;79.92
13952;BME280;39535;52.192;9.886;2024-02-26T03:50:21;99368.84;;;4.60;80.03
13952;BME280;39535;52.192;9.886;2024-02-26T03:52:47;99360.19;;;4.61;80.31
13952;BME280;39535;52.192;9.886;2024-02-26T03:55:14;99378.28;;;4.64;80.21
13952;BME280;39535;52.192;9.886;2024-02-26T03:57:40;99373.94;;;4.65;79.72
13952;BME280;39535;52.192;9.886;2024-02-26T04:00:07;99379.13;;;4.63;80.20
13952;BME280;39535;52.192;9.886;2024-02-26T04:02:34;99374.84;;;4.62;80.16
13952;BME280;39535;52.192;9.886;2024-02-26T04:05:02;99365.44;;;4.58;81.25
13952;BME280;39535;52.192;9.886;2024-02-26T04:07:29;99352.50;;;4.58;81.69
13952;BME280;39535;52.192;9.886;2024-02-26T04:09:55;99338.69;;;4.59;81.37
13952;BME280;39535;52.192;9.886;2024-02-26T04:12:22;99344.66;;;4.64;81.13
13952;BME280;39535;52.192;9.886;2024-02-26T04:14:48;99345.53;;;4.65;81.34
13952;BME280;39535;52.192;9.886;2024-02-26T04:17:14;99347.22;;;4.66;81.31
13952;BME280;39535;52.192;9.886;2024-02-26T04:19:41;99352.25;;;4.76;80.31
13952;BME280;39535;52.192;9.886;2024-02-26T04:22:09;99367.72;;;4.81;80.57
13952;BME280;39535;52.192;9.886;2024-02-26T04:24:36;99377.19;;;4.84;79.98
13952;BME280;39535;52.192;9.886;2024-02-26T04:27:03;99373.75;;;4.82;80.25
13952;BME280;39535;52.192;9.886;2024-02-26T04:29:29;99374.53;;;4.87;80.18
13952;BME280;39535;52.192;9.886;2024-02-26T04:31:55;99392.66;;;4.85;79.84
13952;BME280;39535;52.192;9.886;2024-02-26T04:34:22;99390.94;;;4.84;80.36
13952;BME280;39535;52.192;9.886;2024-02-26T04:36:48;99394.34;;;4.88;80.28
13952;BME280;39535;52.192;9.886;2024-02-26T04:39:16;99398.63;;;4.89;80.63
13952;BME280;39535;52.192;9.886;2024-02-26T04:41:42;99402.03;;;4.94;80.42
13952;BME280;39535;52.192;9.886;2024-02-26T04:44:08;99403.81;;;4.87;80.71
13952;BME280;39535;52.192;9.886;2024-02-26T04:46:35;99405.47;;;4.93;80.45
13952;BME280;39535;52.192;9.886;2024-02-26T04:49:01;99418.38;;;4.97;80.15
13952;BME280;39535;52.192;9.886;2024-02-26T04:51:27;99421.81;;;4.96;80.80
13952;BME280;39535;52.192;9.886;2024-02-26T04:53:54;99421.81;;;4.96;80.80
13952;BME280;39535;52.192;9.886;2024-02-26T04:56:21;99415.81;;;4.96;80.97
13952;BME280;39535;52.192;9.886;2024-02-26T04:58:48;99408.88;;;5.00;80.48
13952;BME280;39535;52.192;9.886;2024-02-26T05:01:15;99422.56;;;5.05;79.98
13952;BME280;39535;52.192;9.886;2024-02-26T05:03:42;99437.19;;;5.07;78.79
13952;BME280;39535;52.192;9.886;2024-02-26T05:06:08;99455.28;;;5.07;79.24
13952;BME280;39535;52.192;9.886;2024-02-26T05:08:35;99456.16;;;5.08;79.62
13952;BME280;39535;52.192;9.886;2024-02-26T05:11:03;99463.88;;;5.09;79.33
13952;BME280;39535;52.192;9.886;2024-02-26T05:13:31;99459.63;;;5.07;79.73
13952;BME280;39535;52.192;9.886;2024-02-26T05:15:57;99451.84;;;5.07;79.71
13952;BME280;39535;52.192;9.886;2024-02-26T05:18:23;99455.28;;;5.09;79.38
13952;BME280;39535;52.192;9.886;2024-02-26T05:20:50;99455.28;;;5.07;79.57
13952;BME280;39535;52.192;9.886;2024-02-26T05:23:16;99454.44;;;5.07;79.98
13952;BME280;39535;52.192;9.886;2024-02-26T05:25:43;99463.09;;;5.04;80.24
13952;BME280;39535;52.192;9.886;2024-02-26T05:28:12;99448.59;;;4.91;81.33
13952;BME280;39535;52.192;9.886;2024-02-26T05:30:39;99432.25;;;4.87;81.70
13952;BME280;39535;52.192;9.886;2024-02-26T05:33:06;99418.41;;;4.91;81.69
13952;BME280;39535;52.192;9.886;2024-02-26T05:35:32;99424.41;;;4.95;81.20
13952;BME280;39535;52.192;9.886;2024-02-26T05:37:58;99436.44;;;4.99;80.44
13952;BME280;39535;52.192;9.886;2024-02-26T05:40:25;99445.00;;;5.03;80.02
13952;BME280;39535;52.192;9.886;2024-02-26T05:42:51;99432.94;;;5.03;80.30
13952;BME280;39535;52.192;9.886;2024-02-26T05:45:17;99443.31;;;5.02;80.67
13952;BME280;39535;52.192;9.886;2024-02-26T05:47:45;99439.06;;;4.97;80.56
13952;BME280;39535;52.192;9.886;2024-02-26T05:50:12;99429.59;;;4.93;81.33
13952;BME280;39535;52.192;9.886;2024-02-26T05:52:40;99409.88;;;4.86;82.47
13952;BME280;39535;52.192;9.886;2024-02-26T05:55:07;99390.97;;;4.83;82.20
13952;BME280;39535;52.192;9.886;2024-02-26T05:57:33;99378.81;;;4.89;82.02
13952;BME280;39535;52.192;9.886;2024-02-26T06:00:00;99393.38;;;4.96;81.75
13952;BME280;39535;52.192;9.886;2024-02-26T06:02:29;99407.97;;;5.02;81.72
13952;BME280;39535;52.192;9.886;2024-02-26T06:04:56;99407.13;;;5.02;81.38
13952;BME280;39535;52.192;9.886;2024-02-26T06:07:23;99416.63;;;5.00;81.89
13952;BME280;39535;52.192;9.886;2024-02-26T06:09:49;99413.97;;;5.06;80.46
13952;BME280;39535;52.192;9.886;2024-02-26T06:12:15;99435.50;;;5.06;80.55
13952;BME280;39535;52.192;9.886;2024-02-26T06:14:43;99448.41;;;5.08;80.71
13952;BME280;39535;52.192;9.886;2024-02-26T06:17:09;99457.88;;;5.07;80.68
13952;BME280;39535;52.192;9.886;2024-02-26T06:19:36;99463.94;;;5.06;80.64
13952;BME280;39535;52.192;9.886;2024-02-26T06:22:04;99468.28;;;5.06;81.25
13952;BME280;39535;52.192;9.886;2024-02-26T06:24:30;99465.69;;;5.04;81.37
13952;BME280;39535;52.192;9.886;2024-02-26T06:26:56;99468.19;;;5.10;81.09
13952;BME280;39535;52.192;9.886;2024-02-26T06:29:23;99473.31;;;5.15;80.26
13952;BME280;39535;52.192;9.886;2024-02-26T06:31:49;99481.94;;;5.15;79.72
13952;BME280;39535;52.192;9.886;2024-02-26T06:34:16;99492.25;;;5.18;79.99
13952;BME280;39535;52.192;9.886;2024-02-26T06:36:42;99498.31;;;5.16;80.11
13952;BME280;39535;52.192;9.886;2024-02-26T06:39:09;99501.75;;;5.15;80.29
13952;BME280;39535;52.192;9.886;2024-02-26T06:41:37;99505.16;;;5.20;80.06
13952;BME280;39535;52.192;9.886;2024-02-26T06:44:04;99516.34;;;5.21;80.19
13952;BME280;39535;52.192;9.886;2024-02-26T06:46:31;99518.94;;;5.22;80.06
13952;BME280;39535;52.192;9.886;2024-02-26T06:48:57;99528.38;;;5.26;80.05
13952;BME280;39535;52.192;9.886;2024-02-26T06:51:23;99545.63;;;5.27;79.42
13952;BME280;39535;52.192;9.886;2024-02-26T06:53:50;99549.91;;;5.30;79.28
13952;BME280;39535;52.192;9.886;2024-02-26T06:56:17;99560.22;;;5.31;79.45
13952;BME280;39535;52.192;9.886;2024-02-26T06:58:44;99562.81;;;5.31;79.33
13952;BME280;39535;52.192;9.886;2024-02-26T07:01:12;99575.72;;;5.33;79.75
13952;BME280;39535;52.192;9.886;2024-02-26T07:03:40;99561.09;;;5.29;80.39
13952;BME280;39535;52.192;9.886;2024-02-26T07:06:06;99560.22;;;5.31;80.15
13952;BME280;39535;52.192;9.886;2024-02-26T07:08:32;99555.00;;;5.33;80.23
13952;BME280;39535;52.192;9.886;2024-02-26T07:10:59;99549.91;;;5.28;81.32
13952;BME280;39535;52.192;9.886;2024-02-26T07:13:26;99542.97;;;5.30;80.93
13952;BME280;39535;52.192;9.886;2024-02-26T07:15:53;99539.53;;;5.30;81.33
13952;BME280;39535;52.192;9.886;2024-02-26T07:18:19;99535.97;;;5.38;80.78
13952;BME280;39535;52.192;9.886;2024-02-26T07:20:45;99543.69;;;5.43;80.48
13952;BME280;39535;52.192;9.886;2024-02-26T07:23:12;99554.84;;;5.47;79.90
13952;BME280;39535;52.192;9.886;2024-02-26T07:25:38;99560.91;;;5.47;80.28
13952;BME280;39535;52.192;9.886;2024-02-26T07:28:06;99560.91;;;5.46;80.61
13952;BME280;39535;52.192;9.886;2024-02-26T07:30:33;99559.09;;;5.51;80.03
13952;BME280;39535;52.192;9.886;2024-02-26T07:33:00;99561.69;;;5.51;79.86
13952;BME280;39535;52.192;9.886;2024-02-26T07:35:26;99560.75;;;5.58;80.31
13952;BME280;39535;52.192;9.886;2024-02-26T07:37:53;99558.16;;;5.60;79.85
13952;BME280;39535;52.192;9.886;2024-02-26T07:40:19;99563.34;;;5.58;80.22
13952;BME280;39535;52.192;9.886;2024-02-26T07:42:46;99568.44;;;5.63;80.41
13952;BME280;39535;52.192;9.886;2024-02-26T07:45:12;99567.59;;;5.64;80.42
13952;BME280;39535;52.192;9.886;2024-02-26T07:47:42;99569.25;;;5.68;80.41
13952;BME280;39535;52.192;9.886;2024-02-26T07:50:08;99566.59;;;5.72;80.19
13952;BME280;39535;52.192;9.886;2024-02-26T07:52:36;99570.91;;;5.75;80.30
13952;BME280;39535;52.192;9.886;2024-02-26T07:55:02;99570.00;;;5.77;80.19
13952;BME280;39535;52.192;9.886;2024-02-26T07:57:29;99570.84;;;5.78;80.43
13952;BME280;39535;52.192;9.886;2024-02-26T07:59:56;99558.72;;;5.80;80.70
13952;BME280;39535;52.192;9.886;2024-02-26T08:02:22;99553.53;;;5.83;80.09
13952;BME280;39535;52.192;9.886;2024-02-26T08:04:50;99556.13;;;5.82;80.45
13952;BME280;39535;52.192;9.886;2024-02-26T08:07:16;99548.34;;;5.85;81.02
13952;BME280;39535;52.192;9.886;2024-02-26T08:09:43;99552.53;;;5.90;80.56
13952;BME280;39535;52.192;9.886;2024-02-26T08:12:09;99551.63;;;5.94;80.64
13952;BME280;39535;52.192;9.886;2024-02-26T08:14:35;99565.41;;;5.98;80.28
13952;BME280;39535;52.192;9.886;2024-02-26T08:17:02;99565.31;;;6.04;79.90
13952;BME280;39535;52.192;9.886;2024-02-26T08:19:28;99574.75;;;6.10;79.13
13952;BME280;39535;52.192;9.886;2024-02-26T08:21:56;99601.47;;;6.13;78.83
13952;BME280;39535;52.192;9.886;2024-02-26T08:24:22;99597.13;;;6.17;79.12
13952;BME280;39535;52.192;9.886;2024-02-26T08:26:49;99595.34;;;6.21;79.23
13952;BME280;39535;52.192;9.886;2024-02-26T08:29:15;99597.81;;;6.28;78.76
13952;BME280;39535;52.192;9.886;2024-02-26T08:31:41;99614.19;;;6.30;79.36
13952;BME280;39535;52.192;9.886;2024-02-26T08:34:08;99622.75;;;6.35;78.59
13952;BME280;39535;52.192;9.886;2024-02-26T08:36:34;99629.69;;;6.35;78.53
13952;BME280;39535;52.192;9.886;2024-02-26T08:39:02;99625.34;;;6.34;78.71
13952;BME280;39535;52.192;9.886;2024-02-26T08:41:29;99621.91;;;6.33;78.37
13952;BME280;39535;52.192;9.886;2024-02-26T08:43:55;99629.66;;;6.36;77.94
13952;BME280;39535;52.192;9.886;2024-02-26T08:46:23;99633.94;;;6.39;77.51
13952;BME280;39535;52.192;9.886;2024-02-26T08:48:49;99647.72;;;6.41;77.85
13952;BME280;39535;52.192;9.886;2024-02-26T08:51:16;99647.81;;;6.36;77.85
13952;BME280;39535;52.192;9.886;2024-02-26T08:53:42;99649.41;;;6.44;78.55
13952;BME280;39535;52.192;9.886;2024-02-26T08:56:10;99651.94;;;6.48;78.21
13952;BME280;39535;52.192;9.886;2024-02-26T08:58:41;99652.66;;;6.58;77.69
13952;BME280;39535;52.192;9.886;2024-02-26T09:01:08;99667.25;;;6.64;76.95
13952;BME280;39535;52.192;9.886;2024-02-26T09:03:34;99687.06;;;6.68;76.52
13952;BME280;39535;52.192;9.886;2024-02-26T09:06:01;99704.28;;;6.73;76.27
13952;BME280;39535;52.192;9.886;2024-02-26T09:08:27;99710.25;;;6.79;76.34
13952;BME280;39535;52.192;9.886;2024-02-26T09:10:54;99722.31;;;6.83;76.11
13952;BME280;39535;52.192;9.886;2024-02-26T09:13:21;99722.31;;;6.83;76.32
13952;BME280;39535;52.192;9.886;2024-02-26T09:15:48;99730.91;;;6.85;75.50
13952;BME280;39535;52.192;9.886;2024-02-26T09:18:14;99734.34;;;6.88;75.48
13952;BME280;39535;52.192;9.886;2024-02-26T09:20:41;99749.88;;;6.90;75.36
13952;BME280;39535;52.192;9.886;2024-02-26T09:23:07;99760.25;;;6.90;75.87
13952;BME280;39535;52.192;9.886;2024-02-26T09:25:34;99769.72;;;6.94;74.82
13952;BME280;39535;52.192;9.886;2024-02-26T09:28:01;99767.91;;;6.97;75.11
13952;BME280;39535;52.192;9.886;2024-02-26T09:30:29;99772.22;;;6.99;75.35
13952;BME280;39535;52.192;9.886;2024-02-26T09:32:56;99776.50;;;7.00;74.90
13952;BME280;39535;52.192;9.886;2024-02-26T09:35:22;99776.47;;;7.03;74.97
13952;BME280;39535;52.192;9.886;2024-02-26T09:37:49;99791.13;;;7.07;74.43
13952;BME280;39535;52.192;9.886;2024-02-26T09:40:15;99798.88;;;7.10;73.95
13952;BME280;39535;52.192;9.886;2024-02-26T09:42:44;99803.97;;;7.18;74.28
13952;BME280;39535;52.192;9.886;2024-02-26T09:45:15;99808.22;;;7.20;74.43
13952;BME280;39535;52.192;9.886;2024-02-26T09:47:45;99798.69;;;7.22;75.63
13952;BME280;39535;52.192;9.886;2024-02-26T09:50:14;99795.94;;;7.31;74.75
13952;BME280;39535;52.192;9.886;2024-02-26T09:52:43;99817.50;;;7.35;74.21
13952;BME280;39535;52.192;9.886;2024-02-26T09:55:10;99835.66;;;7.36;73.87
13952;BME280;39535;52.192;9.886;2024-02-26T09:57:37;99858.31;;;7.27;73.82
13952;BME280;39535;52.192;9.886;2024-02-26T10:00:04;99859.97;;;7.32;73.27
13952;BME280;39535;52.192;9.886;2024-02-26T10:02:35;99874.53;;;7.41;73.31
13952;BME280;39535;52.192;9.886;2024-02-26T10:05:04;99883.13;;;7.46;73.38
13952;BME280;39535;52.192;9.886;2024-02-26T10:07:31;99886.47;;;7.53;72.57
13952;BME280;39535;52.192;9.886;2024-02-26T10:09:58;99893.50;;;7.46;74.07
13952;BME280;39535;52.192;9.886;2024-02-26T10:12:28;99882.16;;;7.53;74.44
13952;BME280;39535;52.192;9.886;2024-02-26T10:14:56;99863.88;;;7.58;74.16
13952;BME280;39535;52.192;9.886;2024-02-26T10:17:22;99872.41;;;7.68;73.07
13952;BME280;39535;52.192;9.886;2024-02-26T10:19:49;99892.28;;;7.69;73.14
13952;BME280;39535;52.192;9.886;2024-02-26T10:22:18;99886.13;;;7.74;73.20
13952;BME280;39535;52.192;9.886;2024-02-26T10:24:46;99891.19;;;7.84;72.39
13952;BME280;39535;52.192;9.886;2024-02-26T10:27:13;99924.91;;;7.87;71.33
13952;BME280;39535;52.192;9.886;2024-02-26T10:29:39;99949.16;;;7.87;71.30
13952;BME280;39535;52.192;9.886;2024-02-26T10:32:08;99956.16;;;7.82;71.39
13952;BME280;39535;52.192;9.886;2024-02-26T10:34:36;99946.66;;;7.81;72.93
13952;BME280;39535;52.192;9.886;2024-02-26T10:37:04;99953.47;;;7.88;71.69
13952;BME280;39535;52.192;9.886;2024-02-26T10:39:32;99966.41;;;7.91;70.95
13952;BME280;39535;52.192;9.886;2024-02-26T10:41:59;99984.59;;;7.93;70.60
13952;BME280;39535;52.192;9.886;2024-02-26T10:44:30;99995.84;;;7.93;70.12
13952;BME280;39535;52.192;9.886;2024-02-26T10:46:57;100004.47;;;7.95;69.80
13952;BME280;39535;52.192;9.886;2024-02-26T10:49:23;100005.41;;;7.91;70.37
13952;BME280;39535;52.192;9.886;2024-02-26T10:51:55;100017.53;;;7.91;70.07
13952;BME280;39535;52.192;9.886;2024-02-26T10:54:24;100019.34;;;7.86;69.44
13952;BME280;39535;52.192;9.886;2024-02-26T10:56:53;100021.09;;;7.85;70.18
13952;BME280;39535;52.192;9.886;2024-02-26T10:59:22;100008.09;;;7.85;70.88
13952;BME280;39535;52.192;9.886;2024-02-26T11:01:48;99981.19;;;7.88;71.13
13952;BME280;39535;52.192;9.886;2024-02-26T11:04:15;99979.41;;;7.91;70.89
13952;BME280;39535;52.192;9.886;2024-02-26T11:06:42;99979.34;;;7.94;70.89
13952;BME280;39535;52.192;9.886;2024-02-26T11:09:11;99973.28;;;7.97;71.71
13952;BME280;39535;52.192;9.886;2024-02-26T11:11:39;99963.63;;;8.04;71.96
13952;BME280;39535;52.192;9.886;2024-02-26T11:14:09;99948.84;;;8.07;73.04
13952;BME280;39535;52.192;9.886;2024-02-26T11:16:37;99938.25;;;8.16;72.18
13952;BME280;39535;52.192;9.886;2024-02-26T11:19:06;99939.06;;;8.20;71.61
13952;BME280;39535;52.192;9.886;2024-02-26T11:21:33;99946.94;;;8.19;73.14
13952;BME280;39535;52.192;9.886;2024-02-26T11:24:07;99923.31;;;8.29;72.72
13952;BME280;39535;52.192;9.886;2024-02-26T11:26:36;99931.91;;;8.34;72.39
13952;BME280;39535;52.192;9.886;2024-02-26T11:29:05;99934.41;;;8.41;73.25
13952;BME280;39535;52.192;9.886;2024-02-26T11:31:37;99929.91;;;8.50;72.37
13952;BME280;39535;52.192;9.886;2024-02-26T11:34:04;99949.72;;;8.56;71.67
13952;BME280;39535;52.192;9.886;2024-02-26T11:36:30;99972.28;;;8.55;71.25
13952;BME280;39535;52.192;9.886;2024-02-26T11:38:57;99980.94;;;8.58;70.84
13952;BME280;39535;52.192;9.886;2024-02-26T11:41:23;99989.44;;;8.66;70.24
13952;BME280;39535;52.192;9.886;2024-02-26T11:43:50;100008.59;;;8.63;69.35
13952;BME280;39535;52.192;9.886;2024-02-26T11:46:27;100039.00;;;8.60;69.77
13952;BME280;39535;52.192;9.886;2024-02-26T11:48:58;100057.09;;;8.66;68.97
13952;BME280;39535;52.192;9.886;2024-02-26T11:51:25;100064.03;;;8.65;69.02
13952;BME280;39535;52.192;9.886;2024-02-26T11:53:53;100068.44;;;8.62;69.24
13952;BME280;39535;52.192;9.886;2024-02-26T11:56:20;100057.06;;;8.67;68.94
13952;BME280;39535;52.192;9.886;2024-02-26T11:58:46;100057.91;;;8.69;69.21
13952;BME280;39535;52.192;9.886;2024-02-26T12:01:40;100038.03;;;8.65;70.49
13952;BME280;39535;52.192;9.886;2024-02-26T12:04:12;100040.72;;;8.62;70.82
13952;BME280;39535;52.192;9.886;2024-02-26T12:06:41;100026.66;;;8.71;70.74
13952;BME280;39535;52.192;9.886;2024-02-26T12:09:08;100023.16;;;8.72;70.65
13952;BME280;39535;52.192;9.886;2024-02-26T12:11:37;100017.69;;;8.86;70.42
13952;BME280;39535;52.192;9.886;2024-02-26T12:14:05;100028.91;;;8.91;70.05
13952;BME280;39535;52.192;9.886;2024-02-26T12:16:35;100048.66;;;9.01;69.72
13952;BME280;39535;52.192;9.886;2024-02-26T12:19:04;100057.94;;;9.16;69.77
13952;BME280;39535;52.192;9.886;2024-02-26T12:21:33;100041.84;;;9.39;69.90
13952;BME280;39535;52.192;9.886;2024-02-26T12:24:09;100043.84;;;9.67;69.58
13952;BME280;39535;52.192;9.886;2024-02-26T12:26:36;100066.72;;;9.94;67.96
13952;BME280;39535;52.192;9.886;2024-02-26T12:29:02;100100.38;;;10.05;67.62
13952;BME280;39535;52.192;9.886;2024-02-26T12:31:28;100107.06;;;10.17;67.05
13952;BME280;39535;52.192;9.886;2024-02-26T12:33:56;100136.44;;;10.25;65.82
13952;BME280;39535;52.192;9.886;2024-02-26T12:36:23;100168.56;;;10.27;65.45
13952;BME280;39535;52.192;9.886;2024-02-26T12:38:51;100183.81;;;10.07;66.40
13952;BME280;39535;52.192;9.886;2024-02-26T12:41:17;100191.56;;;10.10;65.63
13952;BME280;39535;52.192;9.886;2024-02-26T12:43:44;100195.16;;;10.03;66.27
13952;BME280;39535;52.192;9.886;2024-02-26T12:46:11;100184.72;;;10.04;67.12
13952;BME280;39535;52.192;9.886;2024-02-26T12:48:38;100184.63;;;10.09;66.39
13952;BME280;39535;52.192;9.886;2024-02-26T12:51:04;100183.72;;;10.10;65.96
13952;BME280;39535;52.192;9.886;2024-02-26T12:53:31;100194.25;;;10.07;66.45
13952;BME280;39535;52.192;9.886;2024-02-26T12:55:59;100185.94;;;9.86;67.52
13952;BME280;39535;52.192;9.886;2024-02-26T12:58:25;100164.16;;;9.89;67.66
13952;BME280;39535;52.192;9.886;2024-02-26T13:00:53;100170.13;;;9.96;67.73
13952;BME280;39535;52.192;9.886;2024-02-26T13:03:20;100160.50;;;9.99;67.38
13952;BME280;39535;52.192;9.886;2024-02-26T13:05:48;100173.31;;;10.08;67.07
13952;BME280;39535;52.192;9.886;2024-02-26T13:08:17;100181.97;;;10.10;66.82